createdAt,value
2023-03-14T00:00:27.977Z,51.20
2023-03-14T00:02:56.165Z,51.00
2023-03-14T00:05:24.631Z,51.10
2023-03-14T00:07:52.590Z,51.00
2023-03-14T00:10:21.030Z,50.90
2023-03-14T00:12:48.977Z,50.90
2023-03-14T00:15:16.956Z,50.80
2023-03-14T00:17:46.910Z,50.80
2023-03-14T00:20:15.166Z,50.70
2023-03-14T00:22:43.798Z,50.70
2023-03-14T00:25:12.297Z,50.80
2023-03-14T00:27:40.591Z,50.70
2023-03-14T00:30:09.991Z,50.70
2023-03-14T00:32:38.092Z,50.60
2023-03-14T00:35:08.333Z,50.60
2023-03-14T00:37:36.405Z,50.50
2023-03-14T00:40:07.154Z,50.50
2023-03-14T00:42:35.582Z,50.50
2023-03-14T00:45:04.861Z,50.40
2023-03-14T00:47:33.354Z,50.30
2023-03-14T00:50:01.379Z,50.40
2023-03-14T00:52:31.133Z,50.30
2023-03-14T00:54:59.189Z,50.20
2023-03-14T00:57:27.244Z,50.20
2023-03-14T00:59:55.203Z,50.20
2023-03-14T01:02:23.293Z,50.20
2023-03-14T01:04:51.843Z,50.20
2023-03-14T01:07:19.672Z,50.10
2023-03-14T01:09:49.608Z,50.20
2023-03-14T01:12:17.490Z,50.20
2023-03-14T01:14:45.831Z,50.20
2023-03-14T01:17:13.961Z,50.30
2023-03-14T01:19:41.923Z,50.30
2023-03-14T01:22:09.882Z,50.20
2023-03-14T01:24:39.513Z,50.30
2023-03-14T01:27:09.073Z,50.40
2023-03-14T01:29:37.583Z,50.40
2023-03-14T01:32:06.036Z,50.50
2023-03-14T01:34:34.348Z,50.40
2023-03-14T01:37:02.320Z,50.40
2023-03-14T01:39:30.485Z,50.40
2023-03-14T01:41:58.940Z,50.50
2023-03-14T01:44:28.486Z,50.40
2023-03-14T01:46:56.465Z,50.50
2023-03-14T01:49:26.682Z,50.60
2023-03-14T01:51:57.477Z,50.50
2023-03-14T01:54:27.281Z,50.50
2023-03-14T01:56:57.236Z,50.50
2023-03-14T01:59:25.254Z,50.60
2023-03-14T02:01:55.209Z,50.60
2023-03-14T02:04:23.256Z,50.60
2023-03-14T02:06:57.101Z,50.60
2023-03-14T02:09:25.097Z,50.60
2023-03-14T02:11:53.319Z,50.60
2023-03-14T02:14:29.551Z,50.80
2023-03-14T02:16:58.991Z,50.70
2023-03-14T02:19:33.136Z,50.80
2023-03-14T02:22:04.479Z,50.80
2023-03-14T02:24:40.604Z,50.90
2023-03-14T02:27:14.220Z,50.90
2023-03-14T02:29:46.190Z,51.00
2023-03-14T02:32:14.883Z,50.90
2023-03-14T02:34:43.111Z,51.10
2023-03-14T02:37:11.108Z,50.90
2023-03-14T02:39:40.929Z,50.90
2023-03-14T02:42:08.904Z,51.00
2023-03-14T02:44:38.341Z,50.90
2023-03-14T02:47:06.411Z,50.90
2023-03-14T02:49:34.306Z,51.00
2023-03-14T02:52:02.276Z,50.90
2023-03-14T02:54:30.681Z,50.90
2023-03-14T02:56:58.775Z,50.80
2023-03-14T02:59:27.506Z,50.80
2023-03-14T03:01:56.973Z,50.90
2023-03-14T03:04:25.276Z,50.80
2023-03-14T03:06:53.255Z,50.90
2023-03-14T03:09:21.658Z,50.90
2023-03-14T03:11:49.649Z,50.90
2023-03-14T03:14:18.160Z,50.90
2023-03-14T03:16:46.166Z,50.80
2023-03-14T03:19:16.971Z,50.80
2023-03-14T03:21:45.411Z,50.80
2023-03-14T03:24:13.497Z,50.90
2023-03-14T03:26:41.830Z,50.90
2023-03-14T03:29:09.720Z,51.00
2023-03-14T03:31:39.527Z,51.10
2023-03-14T03:34:07.520Z,51.00
2023-03-14T03:36:37.345Z,51.00
2023-03-14T03:39:05.651Z,51.10
2023-03-14T03:41:34.267Z,51.20
2023-03-14T03:44:02.309Z,51.20
2023-03-14T03:46:30.736Z,51.10
2023-03-14T03:48:58.798Z,51.20
2023-03-14T03:51:27.279Z,51.20
2023-03-14T03:54:29.827Z,51.30
2023-03-14T03:56:57.884Z,51.30
2023-03-14T03:59:26.296Z,51.40
2023-03-14T04:01:54.812Z,51.30
2023-03-14T04:04:23.037Z,51.30
2023-03-14T04:06:51.565Z,51.40
2023-03-14T04:09:19.453Z,51.40
2023-03-14T04:11:48.847Z,51.50
2023-03-14T04:14:17.409Z,51.50
2023-03-14T04:16:45.510Z,51.50
2023-03-14T04:19:13.930Z,51.50
2023-03-14T04:21:45.754Z,51.60
2023-03-14T04:24:13.758Z,51.50
2023-03-14T04:26:41.715Z,51.60
2023-03-14T04:29:13.247Z,51.70
2023-03-14T04:31:41.481Z,51.60
2023-03-14T04:34:09.534Z,51.60
2023-03-14T04:36:39.763Z,51.70
2023-03-14T04:39:08.100Z,51.60
2023-03-14T04:41:36.108Z,51.60
2023-03-14T04:44:04.037Z,51.70
2023-03-14T04:46:33.805Z,51.70
2023-03-14T04:49:01.753Z,51.70
2023-03-14T04:51:30.171Z,51.60
2023-03-14T04:53:58.128Z,52.30
2023-03-14T04:56:26.887Z,51.70
2023-03-14T04:58:54.880Z,51.60
2023-03-14T05:01:23.337Z,51.60
2023-03-14T05:03:52.740Z,51.50
2023-03-14T05:06:21.040Z,51.60
2023-03-14T05:08:48.992Z,51.60
2023-03-14T05:11:17.004Z,51.50
2023-03-14T05:13:44.979Z,51.50
2023-03-14T05:16:13.194Z,51.60
2023-03-14T05:18:41.139Z,51.50
2023-03-14T05:21:10.570Z,51.50
2023-03-14T05:23:38.853Z,51.50
2023-03-14T05:26:07.312Z,51.60
2023-03-14T05:28:35.292Z,51.50
2023-03-14T05:31:03.210Z,51.50
2023-03-14T05:33:31.551Z,51.50
2023-03-14T05:35:59.551Z,51.40
2023-03-14T05:38:29.094Z,51.40
2023-03-14T05:40:57.015Z,51.40
2023-03-14T05:43:25.422Z,51.40
2023-03-14T05:45:53.362Z,51.50
2023-03-14T05:48:23.013Z,51.40
2023-03-14T05:50:56.141Z,51.40
2023-03-14T05:53:24.723Z,51.40
2023-03-14T05:55:57.803Z,51.40
2023-03-14T05:58:26.664Z,51.40
2023-03-14T06:00:54.647Z,51.40
2023-03-14T06:03:22.583Z,51.40
2023-03-14T06:05:52.717Z,51.40
2023-03-14T06:08:20.665Z,51.30
2023-03-14T06:10:49.028Z,51.40
2023-03-14T06:13:18.409Z,51.50
2023-03-14T06:15:47.395Z,51.40
2023-03-14T06:18:15.996Z,51.50
2023-03-14T06:20:44.357Z,51.30
2023-03-14T06:23:12.383Z,51.60
2023-03-14T06:25:40.975Z,51.50
2023-03-14T06:28:08.870Z,51.60
2023-03-14T06:30:38.647Z,51.40
2023-03-14T06:33:06.628Z,51.70
2023-03-14T06:35:34.966Z,51.50
2023-03-14T06:38:02.915Z,51.60
2023-03-14T06:40:30.810Z,51.50
2023-03-14T06:42:59.431Z,51.60
2023-03-14T06:45:27.407Z,51.80
2023-03-14T06:48:03.369Z,51.60
2023-03-14T06:50:31.408Z,51.50
2023-03-14T06:53:00.395Z,52.30
2023-03-14T06:55:42.173Z,51.60
2023-03-14T06:58:10.748Z,51.70
2023-03-14T07:00:38.722Z,51.50
2023-03-14T07:03:08.251Z,51.50
2023-03-14T07:05:36.240Z,51.40
2023-03-14T07:08:04.201Z,51.40
2023-03-14T07:10:32.186Z,51.30
2023-03-14T07:13:00.138Z,51.20
2023-03-14T07:15:28.733Z,51.30
2023-03-14T07:17:56.685Z,51.20
2023-03-14T07:20:26.759Z,51.40
2023-03-14T07:22:55.329Z,51.30
2023-03-14T07:25:23.463Z,51.30
2023-03-14T07:27:51.411Z,51.20
2023-03-14T07:30:19.726Z,51.30
2023-03-14T07:32:47.795Z,51.40
2023-03-14T07:35:16.084Z,51.50
2023-03-14T07:37:45.562Z,51.30
2023-03-14T07:40:16.247Z,51.40
2023-03-14T07:42:44.467Z,51.40
2023-03-14T07:45:12.602Z,51.40
2023-03-14T07:47:40.773Z,51.50
2023-03-14T07:50:09.885Z,51.30
2023-03-14T07:52:38.327Z,51.50
2023-03-14T07:55:08.727Z,51.50
2023-03-14T07:57:37.142Z,51.50
2023-03-14T08:00:06.771Z,51.50
2023-03-14T08:02:34.767Z,51.60
2023-03-14T08:05:02.800Z,51.50
2023-03-14T08:07:31.280Z,51.70
2023-03-14T08:09:59.184Z,51.60
2023-03-14T08:12:28.955Z,51.70
2023-03-14T08:14:56.947Z,51.60
2023-03-14T08:17:27.309Z,51.50
2023-03-14T08:19:56.714Z,51.50
2023-03-14T08:22:24.884Z,51.60
2023-03-14T08:24:52.903Z,51.50
2023-03-14T08:27:20.915Z,51.40
2023-03-14T08:29:50.627Z,51.50
2023-03-14T08:32:18.603Z,51.50
2023-03-14T08:34:46.575Z,51.40
2023-03-14T08:37:25.660Z,51.50
2023-03-14T08:39:55.317Z,51.70
2023-03-14T08:42:23.306Z,51.60
2023-03-14T08:44:52.787Z,51.60
2023-03-14T08:47:20.761Z,51.60
2023-03-14T08:49:49.233Z,51.70
2023-03-14T08:52:19.407Z,51.60
2023-03-14T08:54:47.474Z,51.70
2023-03-14T08:57:15.788Z,51.70
2023-03-14T08:59:44.212Z,51.70
2023-03-14T09:02:13.981Z,51.80
2023-03-14T09:04:42.386Z,51.90
2023-03-14T09:07:10.247Z,52.00
2023-03-14T09:09:38.449Z,52.00
2023-03-14T09:12:06.918Z,52.00
2023-03-14T09:14:34.952Z,52.20
2023-03-14T09:17:03.155Z,52.10
2023-03-14T09:19:32.940Z,52.10
2023-03-14T09:22:00.991Z,51.90
2023-03-14T09:24:28.824Z,52.20
2023-03-14T09:26:57.344Z,52.20
2023-03-14T09:29:25.809Z,52.20
2023-03-14T09:31:54.205Z,52.30
2023-03-14T09:34:22.242Z,52.10
2023-03-14T09:36:52.091Z,52.40
2023-03-14T09:39:20.107Z,52.20
2023-03-14T09:41:49.975Z,52.20
2023-03-14T09:44:19.680Z,52.20
2023-03-14T09:46:50.416Z,52.20
2023-03-14T09:49:23.951Z,52.20
2023-03-14T09:51:55.721Z,52.10
2023-03-14T09:54:34.915Z,52.20
2023-03-14T09:57:03.364Z,52.00
2023-03-14T09:59:31.694Z,52.00
2023-03-14T10:02:02.629Z,52.10
2023-03-14T10:04:31.300Z,52.10
2023-03-14T10:07:02.556Z,52.10
2023-03-14T10:09:31.669Z,52.10
2023-03-14T10:12:11.247Z,52.10
2023-03-14T10:14:40.164Z,52.20
2023-03-14T10:17:10.916Z,52.20
2023-03-14T10:19:39.000Z,52.20
2023-03-14T10:22:13.669Z,52.20
2023-03-14T10:24:44.481Z,52.20
2023-03-14T10:27:20.672Z,52.30
2023-03-14T10:29:54.613Z,52.30
2023-03-14T10:32:23.151Z,52.40
2023-03-14T10:35:07.454Z,52.40
2023-03-14T10:37:37.290Z,52.40
2023-03-14T10:40:06.750Z,52.30
2023-03-14T10:42:35.777Z,52.40
2023-03-14T10:45:04.868Z,52.40
2023-03-14T10:47:32.751Z,52.90
2023-03-14T10:50:02.064Z,52.40
2023-03-14T10:52:35.715Z,52.30
2023-03-14T10:55:15.112Z,52.20
2023-03-14T10:57:43.295Z,52.10
2023-03-14T11:00:18.180Z,51.90
2023-03-14T11:02:51.686Z,51.20
2023-03-14T11:05:28.467Z,50.90
2023-03-14T11:07:57.273Z,51.10
2023-03-14T11:10:28.611Z,51.40
2023-03-14T11:13:08.119Z,51.00
2023-03-14T11:16:01.055Z,51.20
2023-03-14T11:19:00.376Z,50.70
2023-03-14T11:21:31.218Z,50.50
2023-03-14T11:24:16.873Z,50.50
2023-03-14T11:26:48.707Z,50.00
2023-03-14T11:29:22.707Z,49.70
2023-03-14T11:31:51.071Z,49.30
2023-03-14T11:34:19.618Z,49.60
2023-03-14T11:36:51.539Z,48.40
2023-03-14T11:39:20.165Z,48.20
2023-03-14T11:41:51.316Z,48.20
2023-03-14T11:44:21.264Z,48.40
2023-03-14T11:46:51.665Z,48.80
2023-03-14T11:49:26.099Z,49.10
2023-03-14T11:51:56.111Z,49.50
2023-03-14T11:54:27.264Z,50.00
2023-03-14T11:56:57.929Z,49.90
2023-03-14T11:59:29.670Z,49.40
2023-03-14T12:01:59.956Z,48.40
2023-03-14T12:04:48.048Z,49.40
2023-03-14T12:07:20.523Z,48.20
2023-03-14T12:09:48.719Z,46.90
2023-03-14T12:12:20.213Z,45.90
2023-03-14T12:14:49.051Z,44.10
2023-03-14T12:17:21.480Z,43.60
2023-03-14T12:19:49.583Z,44.70
2023-03-14T12:22:30.564Z,44.30
2023-03-14T12:25:05.483Z,42.40
2023-03-14T12:28:15.659Z,42.80
2023-03-14T12:30:43.597Z,43.70
2023-03-14T12:33:29.945Z,44.00
2023-03-14T12:36:02.534Z,45.00
2023-03-14T12:38:34.911Z,46.10
2023-03-14T12:41:05.411Z,44.50
2023-03-14T12:43:35.687Z,45.20
2023-03-14T12:46:18.646Z,44.20
2023-03-14T12:48:47.173Z,44.40
2023-03-14T12:51:16.147Z,44.70
2023-03-14T12:54:11.484Z,45.20
2023-03-14T12:56:46.506Z,45.80
2023-03-14T12:59:42.146Z,46.40
2023-03-14T13:02:24.360Z,47.50
2023-03-14T13:04:54.194Z,43.00
2023-03-14T13:07:34.157Z,39.70
2023-03-14T13:10:05.253Z,38.00
2023-03-14T13:12:39.922Z,35.80
2023-03-14T13:15:20.640Z,36.50
2023-03-14T13:17:49.382Z,37.70
2023-03-14T13:20:22.349Z,39.00
2023-03-14T13:22:50.979Z,40.10
2023-03-14T13:25:22.415Z,41.10
2023-03-14T13:27:50.384Z,42.20
2023-03-14T13:30:22.624Z,42.80
2023-03-14T13:32:51.185Z,43.40
2023-03-14T13:35:20.702Z,44.00
2023-03-14T13:37:49.979Z,44.60
2023-03-14T13:40:23.624Z,45.00
2023-03-14T13:43:10.548Z,45.00
2023-03-14T13:45:51.654Z,45.40
2023-03-14T13:48:19.628Z,48.00
2023-03-14T13:50:51.382Z,42.10
2023-03-14T13:53:19.400Z,42.10
2023-03-14T13:55:47.878Z,42.20
2023-03-14T13:58:23.536Z,42.70
2023-03-14T14:01:12.166Z,42.30
2023-03-14T14:03:41.360Z,40.90
2023-03-14T14:06:12.675Z,41.50
2023-03-14T14:08:43.304Z,42.00
2023-03-14T14:11:11.584Z,42.40
2023-03-14T14:13:39.481Z,43.00
2023-03-14T14:16:09.112Z,43.60
2023-03-14T14:18:40.110Z,44.20
2023-03-14T14:21:08.114Z,42.00
2023-03-14T14:23:37.115Z,41.40
2023-03-14T14:26:07.420Z,41.30
2023-03-14T14:28:39.139Z,41.40
2023-03-14T14:31:21.008Z,43.70
2023-03-14T14:33:55.136Z,41.60
2023-03-14T14:36:24.229Z,39.20
2023-03-14T14:38:53.908Z,39.40
2023-03-14T14:41:21.977Z,39.30
2023-03-14T14:43:50.964Z,38.70
2023-03-14T14:46:21.739Z,39.30
2023-03-14T14:48:52.563Z,39.90
2023-03-14T14:51:28.433Z,40.60
2023-03-14T14:54:05.489Z,41.50
2023-03-14T14:56:37.867Z,42.10
2023-03-14T14:59:07.833Z,42.40
2023-03-14T15:01:38.344Z,42.60
2023-03-14T15:04:07.146Z,43.10
2023-03-14T15:06:35.055Z,42.90
2023-03-14T15:09:03.134Z,41.70
2023-03-14T15:11:31.131Z,41.30
2023-03-14T15:13:59.104Z,40.50
2023-03-14T15:16:30.310Z,40.00
2023-03-14T15:19:03.212Z,40.00
2023-03-14T15:21:34.821Z,40.90
2023-03-14T15:24:03.241Z,41.90
2023-03-14T15:26:31.281Z,42.30
2023-03-14T15:28:59.366Z,42.40
2023-03-14T15:31:27.712Z,42.00
2023-03-14T15:33:55.688Z,42.00
2023-03-14T15:36:27.021Z,42.10
2023-03-14T15:38:55.330Z,42.80
2023-03-14T15:41:23.753Z,42.20
2023-03-14T15:43:51.878Z,42.50
2023-03-14T15:46:20.673Z,43.00
2023-03-14T15:48:48.971Z,43.50
2023-03-14T15:51:17.745Z,44.40
2023-03-14T15:53:47.461Z,43.90
2023-03-14T15:56:16.024Z,43.60
2023-03-14T15:58:47.451Z,43.70
2023-03-14T16:01:16.881Z,43.70
2023-03-14T16:03:46.403Z,43.90
2023-03-14T16:06:14.425Z,44.40
2023-03-14T16:08:43.188Z,44.20
2023-03-14T16:11:13.054Z,44.10
2023-03-14T16:13:40.987Z,44.20
2023-03-14T16:16:09.700Z,44.60
2023-03-14T16:18:38.614Z,44.40
2023-03-14T16:21:07.839Z,44.50
2023-03-14T16:23:36.778Z,44.60
2023-03-14T16:26:05.591Z,44.60
2023-03-14T16:28:34.990Z,44.60
2023-03-14T16:31:03.549Z,44.50
2023-03-14T16:33:31.701Z,44.40
2023-03-14T16:36:06.449Z,44.60
2023-03-14T16:38:34.629Z,44.60
2023-03-14T16:41:03.371Z,44.40
2023-03-14T16:43:31.377Z,44.40
2023-03-14T16:46:01.846Z,44.50
2023-03-14T16:48:29.994Z,45.00
2023-03-14T16:50:58.640Z,45.30
2023-03-14T16:53:29.163Z,45.40
2023-03-14T16:55:57.513Z,45.60
2023-03-14T16:58:25.532Z,45.80
2023-03-14T17:00:54.107Z,46.00
2023-03-14T17:03:24.061Z,46.10
2023-03-14T17:05:53.632Z,46.30
2023-03-14T17:08:22.627Z,46.50
2023-03-14T17:10:50.662Z,46.60
2023-03-14T17:13:26.042Z,46.60
2023-03-14T17:15:54.853Z,46.60
2023-03-14T17:18:24.824Z,46.80
2023-03-14T17:20:52.903Z,46.80
2023-03-14T17:23:21.025Z,47.00
2023-03-14T17:25:50.357Z,47.50
2023-03-14T17:28:19.087Z,47.10
2023-03-14T17:30:47.348Z,47.30
2023-03-14T17:33:15.614Z,47.10
2023-03-14T17:35:45.922Z,47.20
2023-03-14T17:38:13.906Z,47.30
2023-03-14T17:40:42.397Z,47.40
2023-03-14T17:43:10.416Z,47.30
2023-03-14T17:45:38.937Z,47.50
2023-03-14T17:48:07.364Z,47.40
2023-03-14T17:50:35.995Z,47.50
2023-03-14T17:53:05.536Z,47.50
2023-03-14T17:55:33.748Z,47.70
2023-03-14T17:58:02.776Z,47.60
2023-03-14T18:00:31.753Z,47.60
2023-03-14T18:02:59.916Z,47.70
2023-03-14T18:05:28.662Z,47.50
2023-03-14T18:07:56.639Z,47.60
2023-03-14T18:10:26.198Z,47.70
2023-03-14T18:12:54.469Z,47.70
2023-03-14T18:15:22.792Z,47.70
2023-03-14T18:17:50.755Z,47.70
2023-03-14T18:20:19.154Z,47.60
2023-03-14T18:22:47.371Z,47.70
2023-03-14T18:25:15.330Z,47.70
2023-03-14T18:27:45.224Z,47.80
2023-03-14T18:30:14.688Z,47.70
2023-03-14T18:32:43.155Z,47.70
2023-03-14T18:35:11.569Z,47.70
2023-03-14T18:37:40.091Z,47.60
2023-03-14T18:40:10.575Z,47.60
2023-03-14T18:42:38.610Z,47.60
2023-03-14T18:45:09.500Z,47.50
2023-03-14T18:47:37.878Z,47.60
2023-03-14T18:50:06.561Z,47.60
2023-03-14T18:52:34.591Z,47.50
2023-03-14T18:55:02.478Z,47.50
2023-03-14T18:57:30.440Z,47.60
2023-03-14T18:59:58.871Z,47.50
2023-03-14T19:02:28.421Z,47.40
2023-03-14T19:04:57.157Z,47.60
2023-03-14T19:07:25.242Z,47.50
2023-03-14T19:09:53.512Z,47.50
2023-03-14T19:12:21.563Z,47.50
2023-03-14T19:14:51.465Z,47.60
2023-03-14T19:17:21.008Z,47.60
2023-03-14T19:19:53.343Z,47.60
2023-03-14T19:22:21.353Z,47.50
2023-03-14T19:24:49.491Z,47.60
2023-03-14T19:27:21.515Z,47.50
2023-03-14T19:29:49.504Z,47.50
2023-03-14T19:32:35.737Z,47.40
2023-03-14T19:35:28.073Z,47.20
2023-03-14T19:38:15.210Z,47.00
2023-03-14T19:41:00.796Z,47.10
2023-03-14T19:43:30.222Z,46.80
2023-03-14T19:46:02.779Z,46.60
2023-03-14T19:48:31.566Z,46.60
2023-03-14T19:51:05.686Z,46.50
2023-03-14T19:53:35.825Z,46.50
2023-03-14T19:56:43.987Z,46.40
2023-03-14T19:59:11.819Z,46.20
2023-03-14T20:01:40.150Z,46.30
2023-03-14T20:04:17.674Z,46.10
2023-03-14T20:06:55.275Z,46.10
2023-03-14T20:22:42.879Z,46.10
2023-03-14T20:25:13.261Z,45.60
2023-03-14T20:27:43.881Z,45.50
2023-03-14T20:30:13.828Z,45.50
2023-03-14T20:32:42.803Z,45.60
2023-03-14T20:35:12.654Z,45.60
2023-03-14T20:37:42.633Z,45.50
2023-03-14T20:40:14.912Z,45.60
2023-03-14T20:42:45.996Z,45.40
2023-03-14T20:45:16.297Z,45.50
2023-03-14T20:47:44.283Z,45.40
2023-03-14T20:50:13.138Z,45.40
2023-03-14T20:52:42.774Z,45.40
2023-03-14T20:55:11.576Z,45.20
2023-03-14T20:57:40.238Z,45.30
2023-03-14T21:00:10.132Z,45.30
2023-03-14T21:02:38.806Z,45.30
2023-03-14T21:05:13.717Z,45.30
2023-03-14T21:07:44.901Z,45.10
2023-03-14T21:10:13.586Z,45.20
2023-03-14T21:12:41.753Z,45.20
2023-03-14T21:15:14.229Z,45.00
2023-03-14T21:17:42.780Z,45.30
2023-03-14T21:20:12.231Z,45.40
2023-03-14T21:22:40.930Z,45.70
2023-03-14T21:25:11.270Z,45.70
2023-03-14T21:27:43.546Z,45.70
2023-03-14T21:30:12.895Z,45.90
2023-03-14T21:32:57.146Z,45.90
2023-03-14T21:35:37.190Z,46.20
2023-03-14T21:38:22.156Z,46.40
2023-03-14T21:40:57.383Z,46.30
2023-03-14T21:43:25.491Z,46.50
2023-03-14T21:46:00.754Z,46.50
2023-03-14T21:48:28.921Z,46.50
2023-03-14T21:51:01.819Z,46.60
2023-03-14T21:53:33.274Z,46.80
2023-03-14T21:56:06.654Z,46.70
2023-03-14T21:58:35.996Z,46.90
2023-03-14T22:01:06.835Z,46.80
2023-03-14T22:03:34.958Z,47.00
2023-03-14T22:06:03.220Z,47.00
2023-03-14T22:08:41.710Z,47.10
2023-03-14T22:11:11.584Z,47.10
2023-03-14T22:17:23.512Z,47.20
2023-03-14T22:19:51.692Z,47.30
2023-03-14T22:22:22.880Z,47.40
2023-03-14T22:24:50.929Z,47.30
2023-03-14T22:27:20.624Z,47.30
2023-03-14T22:29:49.012Z,47.40
2023-03-14T22:32:21.452Z,47.40
2023-03-14T22:34:59.169Z,47.40
2023-03-14T22:37:27.430Z,47.40
2023-03-14T22:39:58.904Z,47.60
2023-03-14T22:42:28.867Z,47.70
2023-03-14T22:45:00.284Z,47.70
2023-03-14T22:47:28.563Z,47.80
2023-03-14T22:49:59.815Z,47.80
2023-03-14T22:52:32.172Z,47.50
2023-03-14T22:55:00.921Z,47.80
2023-03-14T22:57:31.319Z,47.80
2023-03-14T22:59:59.359Z,47.70
2023-03-14T23:02:27.335Z,47.80
2023-03-14T23:04:56.167Z,47.80
2023-03-14T23:07:24.459Z,47.70
2023-03-14T23:09:53.337Z,47.80
2023-03-14T23:12:22.073Z,47.80
2023-03-14T23:14:51.432Z,47.80
2023-03-14T23:17:19.430Z,47.80
2023-03-14T23:19:47.446Z,47.60
2023-03-14T23:22:15.490Z,47.80
2023-03-14T23:24:49.196Z,47.80
2023-03-14T23:27:17.167Z,47.70
2023-03-14T23:29:47.164Z,47.70
2023-03-14T23:32:16.352Z,47.70
2023-03-14T23:34:44.250Z,47.80
2023-03-14T23:37:13.860Z,47.70
2023-03-14T23:39:41.905Z,47.80
2023-03-14T23:42:09.955Z,47.80
2023-03-14T23:44:37.946Z,47.90
2023-03-14T23:47:06.394Z,47.90
2023-03-14T23:49:36.392Z,47.80
2023-03-14T23:52:04.542Z,47.80
2023-03-14T23:54:32.721Z,47.80
2023-03-14T23:57:02.392Z,47.80
2023-03-14T23:59:31.571Z,47.70
